Jefferson, Iowa
Current Conditions -  °F | °C
As of 3:15 AM on Sunday 21 Dec 2014 (Local Time) from KPRO Reporting Station
Haze Haze  
Wind Chill: 29°   Ceiling: 700
Heat Index: 37°   Visibility: 2.5mi
Dew Point: 37°   Wind: 12mph
Humidity: 100%   Direction: 160°SSE
Pressure: 30"   Gusts: NA
Location:  42.02°N, 94.38°W
Report Text: KPRO 210915Z AUTO 16010KT 2 1/2SM BR OVC007 03/03 A3000 RMK AO2 T00250025
Loading
Personal Weather Stations






























Interactive Weather Map New forecast layout! Learn more

10-Day Weather Forecast

Advertisements
Track Severe Weather on mobile